sensor_id;sensor_type;location;lat;lon;timestamp;pressure;altitude;pressure_sealevel;temperature;humidity
43683;BME280;29285;52.128;21.060;2023-03-01T00:03:06;101697.10;;;-0.26;71.84
43683;BME280;29285;52.128;21.060;2023-03-01T00:08:07;101689.79;;;-0.32;71.76
43683;BME280;29285;52.128;21.060;2023-03-01T00:13:08;101681.70;;;-0.16;72.24
43683;BME280;29285;52.128;21.060;2023-03-01T00:18:09;101678.06;;;0.33;73.55
43683;BME280;29285;52.128;21.060;2023-03-01T00:23:10;101672.60;;;0.25;74.02
43683;BME280;29285;52.128;21.060;2023-03-01T00:28:13;101674.82;;;0.11;73.96
43683;BME280;29285;52.128;21.060;2023-03-01T00:33:14;101677.42;;;-0.09;73.64
43683;BME280;29285;52.128;21.060;2023-03-01T00:38:15;101673.42;;;-0.21;73.44
43683;BME280;29285;52.128;21.060;2023-03-01T00:43:16;101658.72;;;-0.22;73.64
43683;BME280;29285;52.128;21.060;2023-03-01T00:48:17;101655.36;;;-0.21;73.88
43683;BME280;29285;52.128;21.060;2023-03-01T00:53:18;101655.70;;;-0.35;73.95
43683;BME280;29285;52.128;21.060;2023-03-01T00:58:19;101652.42;;;-0.43;74.04
43683;BME280;29285;52.128;21.060;2023-03-01T01:03:20;101643.44;;;-0.52;74.10
43683;BME280;29285;52.128;21.060;2023-03-01T01:08:21;101641.52;;;-0.63;74.06
43683;BME280;29285;52.128;21.060;2023-03-01T01:13:22;101642.63;;;-0.68;74.32
43683;BME280;29285;52.128;21.060;2023-03-01T01:18:23;101644.75;;;-0.73;74.50
43683;BME280;29285;52.128;21.060;2023-03-01T01:23:24;101635.25;;;-0.69;74.86
43683;BME280;29285;52.128;21.060;2023-03-01T01:28:25;101623.23;;;-0.64;75.20
43683;BME280;29285;52.128;21.060;2023-03-01T01:33:26;101622.05;;;-0.60;75.41
43683;BME280;29285;52.128;21.060;2023-03-01T01:38:27;101615.02;;;-0.68;75.57
43683;BME280;29285;52.128;21.060;2023-03-01T01:43:29;101614.37;;;-0.68;75.71
43683;BME280;29285;52.128;21.060;2023-03-01T01:48:39;101624.16;;;-0.69;75.84
43683;BME280;29285;52.128;21.060;2023-03-01T01:53:43;101614.31;;;-0.69;76.19
43683;BME280;29285;52.128;21.060;2023-03-01T01:58:45;101595.56;;;-0.65;76.49
43683;BME280;29285;52.128;21.060;2023-03-01T02:03:48;101589.95;;;-0.64;76.65
43683;BME280;29285;52.128;21.060;2023-03-01T02:08:49;101595.45;;;-0.64;76.84
43683;BME280;29285;52.128;21.060;2023-03-01T02:13:53;101599.91;;;-0.70;76.99
43683;BME280;29285;52.128;21.060;2023-03-01T02:18:54;101600.77;;;-0.77;76.94
43683;BME280;29285;52.128;21.060;2023-03-01T02:23:58;101601.38;;;-0.75;77.20
43683;BME280;29285;52.128;21.060;2023-03-01T02:28:59;101600.56;;;-0.74;77.51
43683;BME280;29285;52.128;21.060;2023-03-01T02:34:00;101594.11;;;-0.81;77.59
43683;BME280;29285;52.128;21.060;2023-03-01T02:39:06;101591.43;;;-0.89;77.52
43683;BME280;29285;52.128;21.060;2023-03-01T02:44:07;101585.47;;;-0.97;77.54
43683;BME280;29285;52.128;21.060;2023-03-01T02:49:19;101573.51;;;-1.04;77.56
43683;BME280;29285;52.128;21.060;2023-03-01T02:59:26;101578.59;;;-1.11;77.94
43683;BME280;29285;52.128;21.060;2023-03-01T03:04:28;101576.77;;;-1.10;78.28
43683;BME280;29285;52.128;21.060;2023-03-01T03:09:28;101578.23;;;-1.11;78.42
43683;BME280;29285;52.128;21.060;2023-03-01T03:14:30;101557.96;;;-1.11;78.72
43683;BME280;29285;52.128;21.060;2023-03-01T03:19:35;101547.05;;;-1.05;78.95
43683;BME280;29285;52.128;21.060;2023-03-01T03:24:36;101548.26;;;-1.08;79.23
43683;BME280;29285;52.128;21.060;2023-03-01T03:29:38;101541.67;;;-1.17;79.19
43683;BME280;29285;52.128;21.060;2023-03-01T03:34:39;101539.16;;;-1.16;79.45
43683;BME280;29285;52.128;21.060;2023-03-01T03:39:40;101531.20;;;-1.19;79.59
43683;BME280;29285;52.128;21.060;2023-03-01T03:44:41;101527.61;;;-1.19;79.72
43683;BME280;29285;52.128;21.060;2023-03-01T03:49:42;101521.05;;;-1.21;79.92
43683;BME280;29285;52.128;21.060;2023-03-01T03:54:43;101527.66;;;-1.25;79.98
43683;BME280;29285;52.128;21.060;2023-03-01T03:59:44;101534.61;;;-1.22;80.28
43683;BME280;29285;52.128;21.060;2023-03-01T04:04:45;101519.54;;;-1.17;80.57
43683;BME280;29285;52.128;21.060;2023-03-01T04:09:45;101512.86;;;-1.14;80.66
43683;BME280;29285;52.128;21.060;2023-03-01T04:14:46;101514.28;;;-1.09;80.97
43683;BME280;29285;52.128;21.060;2023-03-01T04:19:47;101507.36;;;-1.08;81.26
43683;BME280;29285;52.128;21.060;2023-03-01T04:24:49;101508.92;;;-1.04;81.44
43683;BME280;29285;52.128;21.060;2023-03-01T04:29:50;101516.56;;;-1.05;81.59
43683;BME280;29285;52.128;21.060;2023-03-01T04:34:51;101506.09;;;-1.10;81.60
43683;BME280;29285;52.128;21.060;2023-03-01T04:39:52;101514.59;;;-1.14;81.70
43683;BME280;29285;52.128;21.060;2023-03-01T04:44:53;101514.92;;;-1.17;81.82
43683;BME280;29285;52.128;21.060;2023-03-01T04:49:54;101502.86;;;-1.20;82.01
43683;BME280;29285;52.128;21.060;2023-03-01T04:54:54;101487.27;;;-1.19;82.06
43683;BME280;29285;52.128;21.060;2023-03-01T04:59:55;101483.69;;;-1.15;82.29
43683;BME280;29285;52.128;21.060;2023-03-01T05:04:56;101484.27;;;-1.17;82.42
43683;BME280;29285;52.128;21.060;2023-03-01T05:09:58;101483.11;;;-1.13;82.59
43683;BME280;29285;52.128;21.060;2023-03-01T05:14:59;101480.86;;;-0.96;82.92
43683;BME280;29285;52.128;21.060;2023-03-01T05:19:59;101483.13;;;-0.85;83.19
43683;BME280;29285;52.128;21.060;2023-03-01T05:25:02;101490.77;;;-0.88;83.43
43683;BME280;29285;52.128;21.060;2023-03-01T05:30:03;101491.84;;;-0.91;83.38
43683;BME280;29285;52.128;21.060;2023-03-01T05:35:14;101505.09;;;-0.85;83.50
43683;BME280;29285;52.128;21.060;2023-03-01T05:40:17;101518.10;;;-0.91;83.64
43683;BME280;29285;52.128;21.060;2023-03-01T05:45:18;101522.75;;;-0.93;83.61
43683;BME280;29285;52.128;21.060;2023-03-01T05:50:20;101522.98;;;-0.96;83.70
43683;BME280;29285;52.128;21.060;2023-03-01T05:55:21;101526.57;;;-0.92;83.87
43683;BME280;29285;52.128;21.060;2023-03-01T06:00:22;101525.41;;;-0.91;84.02
43683;BME280;29285;52.128;21.060;2023-03-01T06:05:24;101527.88;;;-0.89;84.13
43683;BME280;29285;52.128;21.060;2023-03-01T06:10:25;101523.58;;;-0.87;84.25
43683;BME280;29285;52.128;21.060;2023-03-01T06:15:26;101525.98;;;-0.83;84.48
43683;BME280;29285;52.128;21.060;2023-03-01T06:20:28;101525.23;;;-0.77;84.70
43683;BME280;29285;52.128;21.060;2023-03-01T06:25:29;101526.03;;;-0.75;84.77
43683;BME280;29285;52.128;21.060;2023-03-01T06:30:30;101526.55;;;-0.68;85.01
43683;BME280;29285;52.128;21.060;2023-03-01T06:35:31;101525.75;;;-0.56;85.21
43683;BME280;29285;52.128;21.060;2023-03-01T06:40:32;101523.60;;;-0.52;85.36
43683;BME280;29285;52.128;21.060;2023-03-01T06:45:36;101525.61;;;-0.45;85.49
43683;BME280;29285;52.128;21.060;2023-03-01T06:50:37;101526.90;;;-0.39;85.73
43683;BME280;29285;52.128;21.060;2023-03-01T06:55:38;101524.00;;;-0.32;85.83
43683;BME280;29285;52.128;21.060;2023-03-01T07:00:39;101526.78;;;-0.24;86.09
43683;BME280;29285;52.128;21.060;2023-03-01T07:05:41;101523.42;;;-0.15;86.19
43683;BME280;29285;52.128;21.060;2023-03-01T07:10:42;101520.09;;;-0.06;86.54
43683;BME280;29285;52.128;21.060;2023-03-01T07:15:43;101524.95;;;0.03;86.52
43683;BME280;29285;52.128;21.060;2023-03-01T07:20:44;101530.23;;;0.11;86.87
43683;BME280;29285;52.128;21.060;2023-03-01T07:25:51;101523.84;;;0.20;87.03
43683;BME280;29285;52.128;21.060;2023-03-01T07:30:52;101524.30;;;0.27;87.09
43683;BME280;29285;52.128;21.060;2023-03-01T07:35:57;101513.70;;;0.38;87.24
43683;BME280;29285;52.128;21.060;2023-03-01T07:40:59;101499.39;;;0.50;87.53
43683;BME280;29285;52.128;21.060;2023-03-01T07:46:01;101490.80;;;0.65;87.78
43683;BME280;29285;52.128;21.060;2023-03-01T07:51:03;101492.64;;;0.81;87.99
43683;BME280;29285;52.128;21.060;2023-03-01T08:01:06;101498.91;;;1.04;88.38
43683;BME280;29285;52.128;21.060;2023-03-01T08:06:08;101503.28;;;1.10;88.36
43683;BME280;29285;52.128;21.060;2023-03-01T08:11:14;101500.89;;;1.23;88.51
43683;BME280;29285;52.128;21.060;2023-03-01T08:16:15;101501.70;;;1.35;88.52
43683;BME280;29285;52.128;21.060;2023-03-01T08:21:16;101504.89;;;1.42;88.63
43683;BME280;29285;52.128;21.060;2023-03-01T08:26:19;101511.07;;;1.64;89.13
43683;BME280;29285;52.128;21.060;2023-03-01T08:36:25;101503.16;;;2.08;89.89
43683;BME280;29285;52.128;21.060;2023-03-01T08:41:26;101499.31;;;2.30;89.88
43683;BME280;29285;52.128;21.060;2023-03-01T08:51:28;101496.55;;;2.53;89.97
43683;BME280;29285;52.128;21.060;2023-03-01T08:56:29;101495.35;;;2.67;90.07
43683;BME280;29285;52.128;21.060;2023-03-01T09:01:30;101496.77;;;2.79;90.22
43683;BME280;29285;52.128;21.060;2023-03-01T09:06:32;101500.86;;;2.93;90.32
43683;BME280;29285;52.128;21.060;2023-03-01T09:11:33;101501.95;;;3.00;90.02
43683;BME280;29285;52.128;21.060;2023-03-01T09:16:34;101506.51;;;3.14;90.26
43683;BME280;29285;52.128;21.060;2023-03-01T09:21:36;101507.77;;;3.31;90.44
43683;BME280;29285;52.128;21.060;2023-03-01T09:26:37;101502.25;;;3.47;90.78
43683;BME280;29285;52.128;21.060;2023-03-01T09:31:38;101494.03;;;3.58;90.57
43683;BME280;29285;52.128;21.060;2023-03-01T09:36:39;101485.71;;;3.67;90.71
43683;BME280;29285;52.128;21.060;2023-03-01T09:46:48;101477.86;;;3.80;90.59
43683;BME280;29285;52.128;21.060;2023-03-01T09:51:57;101469.20;;;3.83;90.53
43683;BME280;29285;52.128;21.060;2023-03-01T09:57:14;101461.13;;;3.89;90.54
43683;BME280;29285;52.128;21.060;2023-03-01T10:02:33;101466.63;;;4.01;90.46
43683;BME280;29285;52.128;21.060;2023-03-01T10:12:47;101450.57;;;4.23;90.39
43683;BME280;29285;52.128;21.060;2023-03-01T10:17:49;101444.67;;;4.33;90.42
43683;BME280;29285;52.128;21.060;2023-03-01T10:22:52;101433.81;;;4.38;90.56
43683;BME280;29285;52.128;21.060;2023-03-01T10:27:59;101429.41;;;4.41;90.27
43683;BME280;29285;52.128;21.060;2023-03-01T10:33:02;101421.94;;;4.44;90.20
43683;BME280;29285;52.128;21.060;2023-03-01T10:38:05;101418.54;;;4.52;90.22
43683;BME280;29285;52.128;21.060;2023-03-01T10:43:10;101421.77;;;4.64;90.43
43683;BME280;29285;52.128;21.060;2023-03-01T10:48:16;101426.66;;;4.74;90.40
43683;BME280;29285;52.128;21.060;2023-03-01T10:53:23;101418.42;;;4.88;90.49
43683;BME280;29285;52.128;21.060;2023-03-01T10:58:25;101417.79;;;5.11;90.78
43683;BME280;29285;52.128;21.060;2023-03-01T11:08:38;101407.88;;;5.45;90.90
43683;BME280;29285;52.128;21.060;2023-03-01T11:13:53;101413.08;;;5.63;91.01
43683;BME280;29285;52.128;21.060;2023-03-01T11:19:37;101402.41;;;5.80;91.08
43683;BME280;29285;52.128;21.060;2023-03-01T11:24:18;101396.48;;;6.09;91.21
43683;BME280;29285;52.128;21.060;2023-03-01T11:34:28;101384.60;;;6.67;91.62
43683;BME280;29285;52.128;21.060;2023-03-01T11:39:54;101383.06;;;6.90;91.55
43683;BME280;29285;52.128;21.060;2023-03-01T11:44:54;101378.54;;;6.98;91.12
43683;BME280;29285;52.128;21.060;2023-03-01T12:10:28;101365.55;;;8.01;90.44
43683;BME280;29285;52.128;21.060;2023-03-01T12:20:50;101376.20;;;8.43;89.85
43683;BME280;29285;52.128;21.060;2023-03-01T12:25:58;101377.80;;;8.65;90.06
43683;BME280;29285;52.128;21.060;2023-03-01T12:46:24;101352.15;;;9.07;88.46
43683;BME280;29285;52.128;21.060;2023-03-01T12:51:30;101349.94;;;9.12;88.07
43683;BME280;29285;52.128;21.060;2023-03-01T12:56:32;101340.48;;;9.23;87.53
43683;BME280;29285;52.128;21.060;2023-03-01T13:07:00;101331.59;;;9.47;87.18
43683;BME280;29285;52.128;21.060;2023-03-01T13:12:03;101332.64;;;9.51;86.56
43683;BME280;29285;52.128;21.060;2023-03-01T13:17:04;101324.55;;;9.63;86.49
43683;BME280;29285;52.128;21.060;2023-03-01T13:27:38;101320.95;;;9.80;85.74
43683;BME280;29285;52.128;21.060;2023-03-01T13:32:39;101310.55;;;9.78;85.16
43683;BME280;29285;52.128;21.060;2023-03-01T13:37:40;101308.89;;;10.01;85.25
43683;BME280;29285;52.128;21.060;2023-03-01T13:42:48;101300.39;;;10.11;85.16
43683;BME280;29285;52.128;21.060;2023-03-01T13:47:52;101296.25;;;10.21;84.93
43683;BME280;29285;52.128;21.060;2023-03-01T13:52:55;101292.79;;;10.27;84.43
43683;BME280;29285;52.128;21.060;2023-03-01T13:58:01;101296.63;;;10.64;84.90
43683;BME280;29285;52.128;21.060;2023-03-01T14:08:20;101289.79;;;11.03;84.81
43683;BME280;29285;52.128;21.060;2023-03-01T14:13:30;101286.50;;;11.46;85.07
43683;BME280;29285;52.128;21.060;2023-03-01T14:18:36;101282.77;;;12.39;86.34
43683;BME280;29285;52.128;21.060;2023-03-01T14:23:39;101272.93;;;14.39;87.25
43683;BME280;29285;52.128;21.060;2023-03-01T14:28:42;101273.39;;;16.17;85.83
43683;BME280;29285;52.128;21.060;2023-03-01T14:33:43;101262.16;;;17.07;83.45
43683;BME280;29285;52.128;21.060;2023-03-01T14:38:55;101250.82;;;17.24;80.57
43683;BME280;29285;52.128;21.060;2023-03-01T14:44:06;101251.45;;;16.26;77.28
43683;BME280;29285;52.128;21.060;2023-03-01T14:49:13;101247.15;;;14.27;73.58
43683;BME280;29285;52.128;21.060;2023-03-01T14:54:26;101253.02;;;12.59;71.21
43683;BME280;29285;52.128;21.060;2023-03-01T14:59:28;101252.58;;;11.51;70.61
43683;BME280;29285;52.128;21.060;2023-03-01T15:04:29;101239.67;;;10.77;70.66
43683;BME280;29285;52.128;21.060;2023-03-01T15:09:35;101236.58;;;10.05;70.59
43683;BME280;29285;52.128;21.060;2023-03-01T15:14:41;101238.75;;;9.50;70.57
43683;BME280;29285;52.128;21.060;2023-03-01T15:19:42;101241.73;;;9.13;71.09
43683;BME280;29285;52.128;21.060;2023-03-01T15:24:47;101246.04;;;8.74;71.15
43683;BME280;29285;52.128;21.060;2023-03-01T15:29:50;101243.73;;;8.45;71.49
43683;BME280;29285;52.128;21.060;2023-03-01T15:34:53;101237.11;;;8.15;71.82
43683;BME280;29285;52.128;21.060;2023-03-01T15:39:55;101237.58;;;7.91;72.00
43683;BME280;29285;52.128;21.060;2023-03-01T15:50:16;101234.81;;;7.57;72.79
43683;BME280;29285;52.128;21.060;2023-03-01T15:55:19;101235.23;;;7.46;73.22
43683;BME280;29285;52.128;21.060;2023-03-01T16:00:20;101239.23;;;7.35;73.57
43683;BME280;29285;52.128;21.060;2023-03-01T16:05:26;101234.77;;;7.21;73.83
43683;BME280;29285;52.128;21.060;2023-03-01T16:10:28;101233.70;;;7.06;74.01
43683;BME280;29285;52.128;21.060;2023-03-01T16:15:30;101229.70;;;7.02;74.41
43683;BME280;29285;52.128;21.060;2023-03-01T16:20:32;101226.98;;;7.06;74.91
43683;BME280;29285;52.128;21.060;2023-03-01T16:25:36;101233.67;;;7.03;75.44
43683;BME280;29285;52.128;21.060;2023-03-01T16:30:38;101239.64;;;6.98;75.72
43683;BME280;29285;52.128;21.060;2023-03-01T16:35:40;101236.77;;;6.89;75.86
43683;BME280;29285;52.128;21.060;2023-03-01T16:40:41;101241.30;;;6.80;75.97
43683;BME280;29285;52.128;21.060;2023-03-01T16:45:47;101245.42;;;6.79;76.32
43683;BME280;29285;52.128;21.060;2023-03-01T16:50:58;101237.98;;;6.77;76.67
43683;BME280;29285;52.128;21.060;2023-03-01T16:55:59;101238.88;;;6.67;76.77
43683;BME280;29285;52.128;21.060;2023-03-01T17:01:11;101240.45;;;6.57;76.85
43683;BME280;29285;52.128;21.060;2023-03-01T17:06:14;101237.56;;;6.48;76.86
43683;BME280;29285;52.128;21.060;2023-03-01T17:11:16;101240.91;;;6.42;77.12
43683;BME280;29285;52.128;21.060;2023-03-01T17:16:18;101243.48;;;6.29;77.26
43683;BME280;29285;52.128;21.060;2023-03-01T17:21:20;101247.32;;;6.11;77.10
43683;BME280;29285;52.128;21.060;2023-03-01T17:26:21;101257.48;;;6.20;77.69
43683;BME280;29285;52.128;21.060;2023-03-01T17:31:22;101261.48;;;6.34;78.46
43683;BME280;29285;52.128;21.060;2023-03-01T17:36:23;101265.80;;;6.15;78.51
43683;BME280;29285;52.128;21.060;2023-03-01T17:41:25;101261.02;;;5.98;78.30
43683;BME280;29285;52.128;21.060;2023-03-01T17:46:25;101262.27;;;5.81;78.36
43683;BME280;29285;52.128;21.060;2023-03-01T17:51:26;101265.47;;;5.69;78.41
43683;BME280;29285;52.128;21.060;2023-03-01T17:56:28;101261.86;;;5.69;78.79
43683;BME280;29285;52.128;21.060;2023-03-01T18:01:29;101255.42;;;5.66;79.00
43683;BME280;29285;52.128;21.060;2023-03-01T18:06:30;101255.91;;;5.55;79.30
43683;BME280;29285;52.128;21.060;2023-03-01T18:11:32;101246.86;;;5.41;79.35
43683;BME280;29285;52.128;21.060;2023-03-01T18:16:33;101238.95;;;5.32;79.41
43683;BME280;29285;52.128;21.060;2023-03-01T18:21:34;101234.47;;;5.24;79.65
43683;BME280;29285;52.128;21.060;2023-03-01T18:26:35;101232.14;;;5.10;79.50
43683;BME280;29285;52.128;21.060;2023-03-01T18:31:37;101226.82;;;5.03;79.86
43683;BME280;29285;52.128;21.060;2023-03-01T18:36:38;101232.86;;;4.95;80.17
43683;BME280;29285;52.128;21.060;2023-03-01T18:41:39;101236.09;;;4.85;80.27
43683;BME280;29285;52.128;21.060;2023-03-01T18:46:40;101234.27;;;4.81;80.59
43683;BME280;29285;52.128;21.060;2023-03-01T18:51:41;101232.19;;;4.72;80.94
43683;BME280;29285;52.128;21.060;2023-03-01T18:56:43;101234.56;;;4.63;80.92
43683;BME280;29285;52.128;21.060;2023-03-01T19:01:44;101237.41;;;4.59;81.19
43683;BME280;29285;52.128;21.060;2023-03-01T19:06:45;101232.99;;;4.62;81.47
43683;BME280;29285;52.128;21.060;2023-03-01T19:11:46;101230.68;;;4.59;81.87
43683;BME280;29285;52.128;21.060;2023-03-01T19:16:47;101239.98;;;4.59;82.31
43683;BME280;29285;52.128;21.060;2023-03-01T19:21:48;101248.33;;;4.56;82.38
43683;BME280;29285;52.128;21.060;2023-03-01T19:26:49;101255.87;;;4.48;82.57
43683;BME280;29285;52.128;21.060;2023-03-01T19:31:50;101265.69;;;4.42;82.97
43683;BME280;29285;52.128;21.060;2023-03-01T19:36:51;101280.10;;;4.34;82.79
43683;BME280;29285;52.128;21.060;2023-03-01T19:41:52;101280.16;;;4.29;83.22
43683;BME280;29285;52.128;21.060;2023-03-01T19:46:54;101276.77;;;4.31;83.30
43683;BME280;29285;52.128;21.060;2023-03-01T19:51:56;101275.98;;;4.33;83.68
43683;BME280;29285;52.128;21.060;2023-03-01T19:56:57;101277.38;;;4.28;83.88
43683;BME280;29285;52.128;21.060;2023-03-01T20:02:00;101276.42;;;4.31;84.15
43683;BME280;29285;52.128;21.060;2023-03-01T20:07:01;101280.57;;;4.33;84.56
43683;BME280;29285;52.128;21.060;2023-03-01T20:12:02;101279.68;;;4.31;84.46
43683;BME280;29285;52.128;21.060;2023-03-01T20:17:03;101275.39;;;4.31;84.66
43683;BME280;29285;52.128;21.060;2023-03-01T20:22:04;101274.08;;;4.33;84.88
43683;BME280;29285;52.128;21.060;2023-03-01T20:27:05;101276.49;;;4.33;84.99
43683;BME280;29285;52.128;21.060;2023-03-01T20:32:06;101281.10;;;4.32;85.09
43683;BME280;29285;52.128;21.060;2023-03-01T20:37:07;101286.02;;;4.30;85.32
43683;BME280;29285;52.128;21.060;2023-03-01T20:42:08;101282.16;;;4.27;85.27
43683;BME280;29285;52.128;21.060;2023-03-01T20:47:10;101284.90;;;4.26;85.56
43683;BME280;29285;52.128;21.060;2023-03-01T20:52:11;101286.94;;;4.25;85.43
43683;BME280;29285;52.128;21.060;2023-03-01T20:57:12;101286.80;;;4.20;85.58
43683;BME280;29285;52.128;21.060;2023-03-01T21:02:12;101285.50;;;4.09;85.47
43683;BME280;29285;52.128;21.060;2023-03-01T21:07:13;101280.77;;;3.99;85.49
43683;BME280;29285;52.128;21.060;2023-03-01T21:12:15;101277.04;;;3.94;85.70
43683;BME280;29285;52.128;21.060;2023-03-01T21:17:16;101279.32;;;3.90;85.98
43683;BME280;29285;52.128;21.060;2023-03-01T21:22:17;101276.67;;;3.80;85.80
43683;BME280;29285;52.128;21.060;2023-03-01T21:27:18;101276.71;;;3.75;86.10
43683;BME280;29285;52.128;21.060;2023-03-01T21:32:19;101273.13;;;3.69;86.28
43683;BME280;29285;52.128;21.060;2023-03-01T21:37:20;101271.61;;;3.64;86.53
43683;BME280;29285;52.128;21.060;2023-03-01T21:42:26;101271.11;;;3.58;86.57
43683;BME280;29285;52.128;21.060;2023-03-01T21:47:27;101266.17;;;3.47;86.75
43683;BME280;29285;52.128;21.060;2023-03-01T21:52:28;101268.42;;;3.42;86.84
43683;BME280;29285;52.128;21.060;2023-03-01T21:57:29;101271.17;;;3.36;86.97
43683;BME280;29285;52.128;21.060;2023-03-01T22:02:30;101267.23;;;3.30;87.14
43683;BME280;29285;52.128;21.060;2023-03-01T22:07:31;101261.17;;;3.28;86.87
43683;BME280;29285;52.128;21.060;2023-03-01T22:12:32;101263.70;;;3.26;87.11
43683;BME280;29285;52.128;21.060;2023-03-01T22:17:33;101260.88;;;3.24;87.38
43683;BME280;29285;52.128;21.060;2023-03-01T22:22:34;101255.13;;;3.15;87.60
43683;BME280;29285;52.128;21.060;2023-03-01T22:27:35;101246.13;;;3.12;87.82
43683;BME280;29285;52.128;21.060;2023-03-01T22:32:39;101233.80;;;3.13;88.10
43683;BME280;29285;52.128;21.060;2023-03-01T22:37:40;101237.20;;;3.12;88.45
43683;BME280;29285;52.128;21.060;2023-03-01T22:42:42;101240.17;;;3.08;88.44
43683;BME280;29285;52.128;21.060;2023-03-01T22:47:42;101241.98;;;3.05;88.76
43683;BME280;29285;52.128;21.060;2023-03-01T22:52:43;101244.81;;;3.02;88.91
43683;BME280;29285;52.128;21.060;2023-03-01T22:57:48;101244.07;;;3.00;88.97
43683;BME280;29285;52.128;21.060;2023-03-01T23:02:48;101240.04;;;2.97;89.45
43683;BME280;29285;52.128;21.060;2023-03-01T23:07:49;101242.90;;;2.95;89.51
43683;BME280;29285;52.128;21.060;2023-03-01T23:12:52;101246.09;;;2.93;89.49
43683;BME280;29285;52.128;21.060;2023-03-01T23:17:53;101255.58;;;2.89;89.83
43683;BME280;29285;52.128;21.060;2023-03-01T23:22:54;101250.27;;;2.84;89.74
43683;BME280;29285;52.128;21.060;2023-03-01T23:28:01;101248.08;;;2.79;90.03
43683;BME280;29285;52.128;21.060;2023-03-01T23:33:03;101244.23;;;2.76;90.03
43683;BME280;29285;52.128;21.060;2023-03-01T23:38:04;101247.36;;;2.72;90.32
43683;BME280;29285;52.128;21.060;2023-03-01T23:43:05;101246.05;;;2.69;90.46
43683;BME280;29285;52.128;21.060;2023-03-01T23:48:06;101241.99;;;2.65;90.50
43683;BME280;29285;52.128;21.060;2023-03-01T23:53:08;101234.92;;;2.58;90.43
43683;BME280;29285;52.128;21.060;2023-03-01T23:58:09;101236.35;;;2.54;90.99
